createdAt,value
2022-11-24T00:01:16.333Z,47.69
2022-11-24T00:03:47.570Z,47.69
2022-11-24T00:06:15.673Z,47.67
2022-11-24T00:08:44.865Z,47.89
2022-11-24T00:11:17.359Z,47.57
2022-11-24T00:13:44.485Z,47.79
2022-11-24T00:16:11.150Z,47.73
2022-11-24T00:18:38.883Z,47.84
2022-11-24T00:21:05.755Z,47.76
2022-11-24T00:23:33.167Z,47.96
2022-11-24T00:26:10.050Z,47.71
2022-11-24T00:28:37.564Z,47.62
2022-11-24T00:31:06.108Z,47.82
2022-11-24T00:33:33.460Z,47.68
2022-11-24T00:36:00.981Z,47.65
2022-11-24T00:38:27.503Z,47.55
2022-11-24T00:40:53.953Z,47.85
2022-11-24T00:43:20.399Z,47.91
2022-11-24T00:45:47.212Z,47.84
2022-11-24T00:48:14.210Z,47.76
2022-11-24T00:50:40.689Z,47.57
2022-11-24T00:53:07.132Z,47.72
2022-11-24T00:55:33.621Z,47.88
2022-11-24T00:58:00.093Z,47.52
2022-11-24T01:00:26.670Z,47.56
2022-11-24T01:02:53.494Z,47.44
2022-11-24T01:05:20.047Z,47.63
2022-11-24T01:07:46.521Z,47.66
2022-11-24T01:10:13.002Z,47.68
2022-11-24T01:12:40.716Z,47.67
2022-11-24T01:15:07.665Z,47.70
2022-11-24T01:17:34.202Z,47.79
2022-11-24T01:20:00.653Z,47.68
2022-11-24T01:22:27.525Z,47.66
2022-11-24T01:24:53.982Z,47.69
2022-11-24T01:27:20.424Z,47.66
2022-11-24T01:29:46.954Z,48.01
2022-11-24T01:32:13.504Z,47.67
2022-11-24T01:34:39.929Z,48.06
2022-11-24T01:37:06.380Z,47.66
2022-11-24T01:39:32.895Z,47.88
2022-11-24T01:42:02.181Z,47.71
2022-11-24T01:44:30.843Z,48.04
2022-11-24T01:47:24.984Z,47.61
2022-11-24T01:49:54.381Z,47.92
2022-11-24T01:52:32.982Z,47.94
2022-11-24T01:55:06.992Z,47.78
2022-11-24T01:57:41.514Z,47.74
2022-11-24T02:00:11.402Z,47.90
2022-11-24T02:02:38.309Z,47.83
2022-11-24T02:05:14.043Z,47.68
2022-11-24T02:07:40.661Z,47.79
2022-11-24T02:10:12.246Z,47.68
2022-11-24T02:12:43.327Z,47.59
2022-11-24T02:15:11.791Z,47.73
2022-11-24T02:17:38.237Z,47.88
2022-11-24T02:20:07.853Z,47.72
2022-11-24T02:22:56.861Z,47.63
2022-11-24T02:25:37.175Z,47.59
2022-11-24T02:28:07.219Z,47.69
2022-11-24T02:30:34.198Z,47.85
2022-11-24T02:33:02.056Z,47.56
2022-11-24T02:35:28.803Z,47.58
2022-11-24T02:37:55.502Z,47.56
2022-11-24T02:40:25.625Z,47.81
2022-11-24T02:42:56.540Z,47.96
2022-11-24T02:45:24.029Z,47.86
2022-11-24T02:47:50.503Z,47.79
2022-11-24T02:50:17.057Z,47.84
2022-11-24T02:52:43.577Z,47.69
2022-11-24T02:55:10.066Z,47.75
2022-11-24T02:57:36.655Z,47.71
2022-11-24T03:00:04.075Z,47.39
2022-11-24T03:02:30.582Z,47.39
2022-11-24T03:04:57.132Z,47.89
2022-11-24T03:07:23.632Z,47.69
2022-11-24T03:09:50.297Z,47.78
2022-11-24T03:12:16.770Z,47.74
2022-11-24T03:14:43.271Z,47.77
2022-11-24T03:17:09.782Z,47.74
2022-11-24T03:19:36.444Z,47.52
2022-11-24T03:22:02.999Z,47.68
2022-11-24T03:24:29.702Z,47.76
2022-11-24T03:26:56.149Z,47.73
2022-11-24T03:29:23.067Z,47.66
2022-11-24T03:31:49.617Z,47.39
2022-11-24T03:34:16.085Z,47.52
2022-11-24T03:36:42.717Z,47.53
2022-11-24T03:39:09.247Z,47.34
2022-11-24T03:41:35.770Z,47.58
2022-11-24T03:44:02.745Z,47.74
2022-11-24T03:46:29.248Z,47.78
2022-11-24T03:48:55.741Z,47.57
2022-11-24T03:51:22.292Z,47.77
2022-11-24T03:53:48.766Z,47.57
2022-11-24T03:56:15.238Z,47.33
2022-11-24T03:58:41.680Z,47.93
2022-11-24T04:01:08.356Z,47.50
2022-11-24T04:03:34.864Z,47.72
2022-11-24T04:06:01.861Z,47.86
2022-11-24T04:08:28.285Z,47.43
2022-11-24T04:10:54.763Z,47.44
2022-11-24T04:13:24.317Z,47.58
2022-11-24T04:15:51.606Z,47.71
2022-11-24T04:18:18.924Z,47.67
2022-11-24T04:20:45.825Z,47.85
2022-11-24T04:23:12.376Z,47.73
2022-11-24T04:25:38.986Z,47.68
2022-11-24T04:28:05.526Z,47.77
2022-11-24T04:30:32.026Z,47.58
2022-11-24T04:32:58.907Z,47.69
2022-11-24T04:35:25.484Z,47.75
2022-11-24T04:37:52.022Z,47.57
2022-11-24T04:40:19.452Z,47.75
2022-11-24T04:42:54.369Z,47.74
2022-11-24T04:45:21.414Z,47.79
2022-11-24T04:47:47.922Z,47.43
2022-11-24T04:50:14.408Z,47.91
2022-11-24T04:52:40.948Z,47.55
2022-11-24T04:55:08.209Z,47.40
2022-11-24T04:57:34.665Z,47.48
2022-11-24T05:00:01.114Z,47.55
2022-11-24T05:02:27.553Z,47.49
2022-11-24T05:04:54.086Z,47.62
2022-11-24T05:07:20.609Z,47.58
2022-11-24T05:10:06.512Z,47.65
2022-11-24T05:12:33.243Z,47.66
2022-11-24T05:15:05.000Z,47.52
2022-11-24T05:17:34.680Z,47.38
2022-11-24T05:20:01.518Z,47.71
2022-11-24T05:22:28.939Z,47.58
2022-11-24T05:24:55.566Z,47.43
2022-11-24T05:27:22.021Z,47.71
2022-11-24T05:29:48.542Z,47.54
2022-11-24T05:32:15.126Z,47.68
2022-11-24T05:34:41.657Z,47.48
2022-11-24T05:37:08.322Z,47.52
2022-11-24T05:39:37.916Z,47.67
2022-11-24T05:42:25.320Z,47.73
2022-11-24T05:44:52.509Z,47.68
2022-11-24T05:47:19.957Z,47.54
2022-11-24T05:49:46.886Z,47.66
2022-11-24T05:52:13.932Z,47.84
2022-11-24T05:54:40.458Z,47.59
2022-11-24T05:57:06.995Z,47.82
2022-11-24T05:59:33.857Z,47.62
2022-11-24T06:02:00.781Z,47.78
2022-11-24T06:04:27.340Z,47.62
2022-11-24T06:06:53.861Z,47.70
2022-11-24T06:09:20.549Z,47.62
2022-11-24T06:11:48.103Z,47.59
2022-11-24T06:14:14.604Z,47.49
2022-11-24T06:16:41.311Z,47.72
2022-11-24T06:19:09.330Z,47.62
2022-11-24T06:21:35.878Z,47.57
2022-11-24T06:24:02.543Z,47.76
2022-11-24T06:26:29.172Z,47.83
2022-11-24T06:28:55.692Z,47.77
2022-11-24T06:31:22.210Z,47.57
2022-11-24T06:33:48.721Z,47.61
2022-11-24T06:36:15.421Z,47.70
2022-11-24T06:38:41.997Z,47.54
2022-11-24T06:41:12.773Z,47.83
2022-11-24T06:43:39.458Z,47.83
2022-11-24T06:46:06.192Z,47.66
2022-11-24T06:48:33.215Z,47.70
2022-11-24T06:51:05.162Z,47.64
2022-11-24T06:53:32.972Z,47.79
2022-11-24T06:56:01.231Z,47.71
2022-11-24T06:58:28.135Z,47.80
2022-11-24T07:00:54.685Z,47.65
2022-11-24T07:03:21.412Z,47.84
2022-11-24T07:05:48.098Z,47.50
2022-11-24T07:08:18.045Z,47.74
2022-11-24T07:10:44.870Z,48.02
2022-11-24T07:13:11.319Z,47.95
2022-11-24T07:15:37.807Z,47.78
2022-11-24T07:18:04.505Z,47.89
2022-11-24T07:20:31.099Z,47.66
2022-11-24T07:22:58.369Z,47.74
2022-11-24T07:25:25.974Z,47.86
2022-11-24T07:27:57.493Z,47.94
2022-11-24T07:30:25.245Z,47.80
2022-11-24T07:32:58.233Z,47.88
2022-11-24T07:35:24.748Z,47.80
2022-11-24T07:37:55.062Z,47.72
2022-11-24T07:40:21.531Z,47.89
2022-11-24T07:42:48.060Z,47.88
2022-11-24T07:45:14.600Z,47.73
2022-11-24T07:47:41.732Z,47.87
2022-11-24T07:50:10.140Z,47.85
2022-11-24T07:52:37.657Z,47.67
2022-11-24T07:55:04.835Z,48.07
2022-11-24T07:57:31.325Z,48.05
2022-11-24T07:59:57.782Z,48.06
2022-11-24T08:02:24.318Z,48.10
2022-11-24T08:04:50.778Z,47.76
2022-11-24T08:07:17.247Z,47.66
2022-11-24T08:09:43.735Z,47.77
2022-11-24T08:12:10.206Z,47.79
2022-11-24T08:14:36.962Z,47.67
2022-11-24T08:17:03.703Z,47.95
2022-11-24T08:19:32.221Z,47.93
2022-11-24T08:21:58.780Z,47.75
2022-11-24T08:24:25.302Z,47.98
2022-11-24T08:26:51.787Z,47.70
2022-11-24T08:29:18.286Z,47.89
2022-11-24T08:31:44.791Z,47.92
2022-11-24T08:34:11.349Z,47.80
2022-11-24T08:36:37.918Z,47.72
2022-11-24T08:39:04.467Z,48.08
2022-11-24T08:41:31.628Z,47.87
2022-11-24T08:43:58.094Z,47.82
2022-11-24T08:46:24.808Z,47.87
2022-11-24T08:48:53.693Z,47.93
2022-11-24T08:51:23.196Z,48.02
2022-11-24T08:53:53.456Z,47.91
2022-11-24T08:56:20.011Z,47.93
2022-11-24T08:58:46.532Z,47.72
2022-11-24T09:01:15.720Z,47.90
2022-11-24T09:03:50.806Z,47.90
2022-11-24T09:06:22.779Z,47.82
2022-11-24T09:08:50.029Z,47.89
2022-11-24T09:11:17.267Z,47.90
2022-11-24T09:13:44.326Z,48.08
2022-11-24T09:16:19.154Z,47.81
2022-11-24T09:18:46.677Z,48.16
2022-11-24T09:21:17.194Z,47.90
2022-11-24T09:23:45.116Z,47.95
2022-11-24T09:26:13.203Z,48.14
2022-11-24T09:28:40.912Z,48.25
2022-11-24T09:31:10.111Z,48.21
2022-11-24T09:33:38.381Z,47.90
2022-11-24T09:36:06.147Z,47.95
2022-11-24T09:38:33.370Z,48.00
2022-11-24T09:41:21.417Z,48.06
2022-11-24T09:44:02.214Z,48.04
2022-11-24T09:46:33.322Z,48.19
2022-11-24T09:49:02.936Z,48.16
2022-11-24T09:51:32.372Z,48.25
2022-11-24T09:54:09.703Z,48.13
2022-11-24T09:56:40.534Z,48.45
2022-11-24T09:59:17.998Z,48.19
2022-11-24T10:01:46.737Z,48.41
2022-11-24T10:04:29.046Z,48.21
2022-11-24T10:07:16.289Z,48.36
2022-11-24T10:10:19.756Z,48.27
2022-11-24T10:13:23.106Z,48.26
2022-11-24T10:16:31.485Z,48.24
2022-11-24T10:19:16.145Z,48.24
2022-11-24T10:21:54.903Z,48.38
2022-11-24T10:24:27.248Z,48.08
2022-11-24T10:27:13.825Z,48.20
2022-11-24T10:29:42.179Z,48.12
2022-11-24T10:32:29.537Z,48.15
2022-11-24T10:35:00.466Z,48.27
2022-11-24T10:37:38.099Z,48.32
2022-11-24T10:40:56.093Z,48.22
2022-11-24T10:43:19.153Z,48.22
2022-11-24T10:45:45.722Z,48.17
2022-11-24T10:48:21.311Z,48.09
2022-11-24T10:50:47.988Z,48.03
2022-11-24T10:53:34.464Z,48.13
2022-11-24T10:56:04.613Z,48.41
2022-11-24T10:58:37.961Z,48.09
2022-11-24T11:01:13.942Z,48.22
2022-11-24T11:03:56.091Z,48.37
2022-11-24T11:06:24.429Z,48.14
2022-11-24T11:09:17.579Z,48.23
2022-11-24T11:11:44.514Z,48.11
2022-11-24T11:14:12.953Z,48.21
2022-11-24T11:16:39.495Z,48.43
2022-11-24T11:19:49.111Z,48.43
2022-11-24T11:22:24.678Z,48.09
2022-11-24T11:25:05.542Z,48.26
2022-11-24T11:27:32.028Z,48.29
2022-11-24T11:35:50.341Z,48.43
2022-11-24T11:38:17.127Z,48.40
2022-11-24T11:40:43.858Z,48.26
2022-11-24T11:43:18.812Z,48.36
2022-11-24T11:45:46.589Z,48.40
2022-11-24T11:48:35.092Z,48.43
2022-11-24T11:51:25.892Z,48.28
2022-11-24T11:54:13.899Z,48.23
2022-11-24T11:56:47.726Z,48.54
2022-11-24T11:59:34.411Z,48.51
2022-11-24T12:02:26.792Z,48.54
2022-11-24T12:05:01.321Z,48.46
2022-11-24T12:07:37.068Z,48.52
2022-11-24T12:10:10.803Z,48.50
2022-11-24T12:12:53.697Z,48.57
2022-11-24T12:15:23.291Z,48.44
2022-11-24T12:18:04.969Z,48.50
2022-11-24T12:20:47.644Z,48.47
2022-11-24T12:23:36.311Z,48.62
2022-11-24T12:26:22.659Z,48.58
2022-11-24T12:28:52.265Z,48.67
2022-11-24T12:31:31.884Z,48.58
2022-11-24T12:34:17.001Z,48.53
2022-11-24T12:36:58.584Z,48.58
2022-11-24T12:39:33.566Z,48.48
2022-11-24T12:42:25.816Z,48.81
2022-11-24T12:45:06.233Z,48.66
2022-11-24T12:47:49.264Z,48.75
2022-11-24T12:50:19.518Z,48.55
2022-11-24T12:53:00.632Z,48.63
2022-11-24T12:55:28.831Z,48.74
2022-11-24T12:57:55.365Z,48.71
2022-11-24T13:00:27.514Z,48.69
2022-11-24T13:03:17.523Z,48.64
2022-11-24T13:06:01.261Z,48.70
2022-11-24T13:08:28.959Z,48.69
2022-11-24T13:11:21.268Z,48.58
2022-11-24T13:14:12.774Z,48.62
2022-11-24T13:17:42.121Z,48.68
2022-11-24T13:20:20.968Z,48.69
2022-11-24T13:22:55.553Z,48.71
2022-11-24T13:25:35.679Z,48.78
2022-11-24T13:28:04.140Z,48.61
2022-11-24T13:30:33.372Z,48.67
2022-11-24T13:33:30.952Z,48.80
2022-11-24T13:36:04.089Z,48.66
2022-11-24T13:38:45.900Z,48.66
2022-11-24T13:41:32.726Z,48.70
2022-11-24T13:44:17.324Z,48.68
2022-11-24T13:47:19.466Z,48.49
2022-11-24T13:49:50.190Z,48.55
2022-11-24T13:52:43.878Z,48.51
2022-11-24T13:55:13.035Z,48.46
2022-11-24T13:57:39.456Z,48.56
2022-11-24T14:00:18.852Z,48.75
2022-11-24T14:02:45.886Z,48.56
2022-11-24T14:05:17.121Z,48.57
2022-11-24T14:07:49.242Z,48.53
2022-11-24T14:10:30.334Z,48.45
2022-11-24T14:13:16.684Z,48.48
2022-11-24T14:15:43.235Z,48.42
2022-11-24T14:18:22.641Z,48.46
2022-11-24T14:20:49.330Z,48.39
2022-11-24T14:23:15.892Z,48.41
2022-11-24T14:25:48.218Z,48.36
2022-11-24T14:28:27.407Z,48.42
2022-11-24T14:31:07.964Z,48.27
2022-11-24T14:33:36.714Z,48.47
2022-11-24T14:36:03.532Z,48.27
2022-11-24T14:38:30.080Z,48.54
2022-11-24T14:40:56.687Z,48.23
2022-11-24T14:43:30.554Z,48.21
2022-11-24T14:46:01.113Z,48.21
2022-11-24T14:48:30.691Z,48.31
2022-11-24T14:51:28.252Z,48.23
2022-11-24T14:54:04.637Z,48.18
2022-11-24T14:56:36.800Z,48.20
2022-11-24T14:59:04.650Z,48.26
2022-11-24T15:01:34.107Z,48.05
2022-11-24T15:07:29.026Z,48.07
2022-11-24T15:09:58.598Z,48.14
2022-11-24T15:12:36.134Z,48.15
2022-11-24T15:15:06.713Z,48.11
2022-11-24T15:17:34.248Z,47.98
2022-11-24T15:20:09.357Z,47.99
2022-11-24T15:22:39.133Z,47.90
2022-11-24T15:25:41.258Z,47.89
2022-11-24T15:28:09.190Z,48.16
2022-11-24T15:30:37.041Z,47.96
2022-11-24T15:33:11.473Z,47.96
2022-11-24T15:35:38.035Z,47.86
2022-11-24T15:38:04.657Z,47.91
2022-11-24T15:40:31.314Z,48.07
2022-11-24T15:43:00.795Z,47.92
2022-11-24T15:45:34.304Z,47.67
2022-11-24T15:48:01.089Z,47.90
2022-11-24T15:50:27.614Z,47.94
2022-11-24T15:52:54.063Z,47.63
2022-11-24T15:55:22.400Z,47.66
2022-11-24T15:57:49.208Z,47.78
2022-11-24T16:00:18.807Z,47.89
2022-11-24T16:02:45.329Z,47.71
2022-11-24T16:05:13.373Z,47.49
2022-11-24T16:07:40.256Z,47.72
2022-11-24T16:10:13.461Z,47.75
2022-11-24T16:12:40.024Z,47.69
2022-11-24T16:15:06.961Z,47.67
2022-11-24T16:17:33.417Z,47.71
2022-11-24T16:20:00.849Z,47.60
2022-11-24T16:22:27.512Z,47.72
2022-11-24T16:24:53.971Z,47.74
2022-11-24T16:27:20.417Z,47.48
2022-11-24T16:29:46.962Z,47.50
2022-11-24T16:32:13.485Z,47.51
2022-11-24T16:34:39.963Z,47.58
2022-11-24T16:37:06.477Z,47.49
2022-11-24T16:39:32.954Z,47.49
2022-11-24T16:41:59.460Z,47.32
2022-11-24T16:44:25.959Z,47.37
2022-11-24T16:46:52.464Z,47.30
2022-11-24T16:49:18.982Z,47.56
2022-11-24T16:51:45.577Z,47.50
2022-11-24T16:54:12.055Z,47.37
2022-11-24T16:56:38.535Z,47.58
2022-11-24T16:59:05.060Z,47.31
2022-11-24T17:01:32.945Z,47.35
2022-11-24T17:04:00.158Z,47.30
2022-11-24T17:06:26.907Z,47.35
2022-11-24T17:08:55.217Z,47.46
2022-11-24T17:11:23.871Z,47.15
2022-11-24T17:13:50.695Z,47.46
2022-11-24T17:16:19.423Z,47.40
2022-11-24T17:18:46.032Z,47.23
2022-11-24T17:21:15.478Z,47.31
2022-11-24T17:23:42.278Z,47.15
2022-11-24T17:26:12.471Z,47.20
2022-11-24T17:28:39.415Z,47.23
2022-11-24T17:31:09.466Z,47.26
2022-11-24T17:33:36.315Z,47.14
2022-11-24T17:36:06.280Z,47.22
2022-11-24T17:38:33.211Z,47.31
2022-11-24T17:40:59.943Z,47.08
2022-11-24T17:43:27.525Z,47.25
2022-11-24T17:45:59.277Z,47.32
2022-11-24T17:48:25.791Z,47.25
2022-11-24T17:50:59.265Z,47.21
2022-11-24T17:53:25.933Z,47.32
2022-11-24T17:55:52.432Z,47.23
2022-11-24T17:58:18.884Z,47.21
2022-11-24T18:00:45.386Z,47.01
2022-11-24T18:03:11.909Z,47.19
2022-11-24T18:05:38.380Z,47.24
2022-11-24T18:08:04.999Z,47.04
2022-11-24T18:10:34.586Z,47.07
2022-11-24T18:13:02.137Z,47.02
2022-11-24T18:15:28.672Z,46.95
2022-11-24T18:17:55.557Z,46.96
2022-11-24T18:20:22.040Z,47.11
2022-11-24T18:23:05.163Z,47.11
2022-11-24T18:25:33.252Z,47.17
2022-11-24T18:27:59.822Z,47.01
2022-11-24T18:30:26.273Z,46.95
2022-11-24T18:32:52.742Z,47.10
2022-11-24T18:35:19.222Z,47.06
2022-11-24T18:37:45.704Z,47.12
2022-11-24T18:40:12.354Z,46.97
2022-11-24T18:42:38.910Z,46.95
2022-11-24T18:45:06.058Z,47.06
2022-11-24T18:47:33.631Z,47.03
2022-11-24T18:50:00.292Z,46.94
2022-11-24T18:52:26.865Z,46.91
2022-11-24T18:54:53.376Z,46.92
2022-11-24T18:57:19.922Z,46.95
2022-11-24T18:59:46.420Z,46.97
2022-11-24T19:02:13.086Z,47.00
2022-11-24T19:04:39.617Z,46.78
2022-11-24T19:07:06.168Z,46.93
2022-11-24T19:09:32.651Z,46.98
2022-11-24T19:11:59.989Z,46.90
2022-11-24T19:14:26.572Z,46.88
2022-11-24T19:16:53.102Z,46.93
2022-11-24T19:19:19.662Z,46.92
2022-11-24T19:21:46.240Z,46.82
2022-11-24T19:24:15.735Z,46.85
2022-11-24T19:26:42.247Z,46.75
2022-11-24T19:29:09.390Z,46.82
2022-11-24T19:31:38.288Z,46.88
2022-11-24T19:34:05.982Z,47.04
2022-11-24T19:36:32.563Z,46.66
2022-11-24T19:38:59.522Z,46.74
2022-11-24T19:41:28.537Z,46.68
2022-11-24T19:43:56.370Z,46.61
2022-11-24T19:46:27.076Z,46.79
2022-11-24T19:48:59.769Z,46.75
2022-11-24T19:51:30.794Z,46.65
2022-11-24T19:53:57.385Z,46.85
2022-11-24T19:56:27.028Z,46.70
2022-11-24T19:58:55.077Z,46.76
2022-11-24T20:01:27.061Z,46.63
2022-11-24T20:04:01.992Z,46.53
2022-11-24T20:06:32.023Z,46.52
2022-11-24T20:09:00.396Z,46.55
2022-11-24T20:11:27.966Z,46.57
2022-11-24T20:13:54.456Z,46.71
2022-11-24T20:16:26.552Z,46.80
2022-11-24T20:18:55.260Z,46.83
2022-11-24T20:21:24.284Z,46.69
2022-11-24T20:24:01.142Z,46.46
2022-11-24T20:26:31.091Z,46.48
2022-11-24T20:28:59.049Z,46.72
2022-11-24T20:31:29.095Z,46.57
2022-11-24T20:33:55.756Z,46.72
2022-11-24T20:36:27.568Z,46.69
2022-11-24T20:38:54.896Z,46.67
2022-11-24T20:41:24.521Z,46.62
2022-11-24T20:43:52.580Z,46.56
2022-11-24T20:46:24.942Z,46.75
2022-11-24T20:48:51.977Z,46.66
2022-11-24T20:51:27.108Z,46.88
2022-11-24T20:53:59.044Z,46.58
2022-11-24T20:56:29.314Z,46.54
2022-11-24T20:58:56.853Z,46.75
2022-11-24T21:01:28.774Z,46.60
2022-11-24T21:03:57.925Z,46.64
2022-11-24T21:06:25.440Z,46.68
2022-11-24T21:08:52.309Z,46.66
2022-11-24T21:11:19.897Z,46.74
2022-11-24T21:13:48.710Z,46.74
2022-11-24T21:16:15.252Z,46.75
2022-11-24T21:18:43.068Z,46.85
2022-11-24T21:21:09.670Z,46.67
2022-11-24T21:23:36.380Z,46.74
2022-11-24T21:26:07.392Z,46.76
2022-11-24T21:28:35.600Z,46.66
2022-11-24T21:31:07.470Z,46.66
2022-11-24T21:33:34.488Z,46.70
2022-11-24T21:36:05.514Z,46.79
2022-11-24T21:38:32.455Z,46.78
2022-11-24T21:41:03.515Z,46.91
2022-11-24T21:43:31.166Z,46.63
2022-11-24T21:46:08.299Z,46.87
2022-11-24T21:48:35.925Z,46.88
2022-11-24T21:51:04.585Z,46.86
2022-11-24T21:53:33.213Z,46.86
2022-11-24T21:56:01.807Z,46.71
2022-11-24T21:58:29.218Z,46.93
2022-11-24T22:01:02.698Z,46.77
2022-11-24T22:03:29.480Z,46.94
2022-11-24T22:05:57.564Z,46.69
2022-11-24T22:08:25.324Z,46.94
2022-11-24T22:10:52.467Z,46.98
2022-11-24T22:13:19.759Z,47.27
2022-11-24T22:15:46.373Z,47.02
2022-11-24T22:18:12.822Z,46.92
2022-11-24T22:20:39.392Z,46.95
2022-11-24T22:23:05.940Z,47.04
2022-11-24T22:25:33.704Z,46.77
2022-11-24T22:28:00.343Z,46.79
2022-11-24T22:30:26.853Z,46.87
2022-11-24T22:32:54.056Z,47.11
2022-11-24T22:35:20.860Z,46.86
2022-11-24T22:37:47.319Z,47.19
2022-11-24T22:40:13.820Z,47.05
2022-11-24T22:42:40.283Z,47.07
2022-11-24T22:45:07.534Z,46.94
2022-11-24T22:47:34.029Z,47.22
2022-11-24T22:50:00.520Z,47.23
2022-11-24T22:52:26.990Z,47.14
2022-11-24T22:54:53.466Z,47.25
2022-11-24T22:57:20.037Z,47.06
2022-11-24T22:59:46.544Z,47.22
2022-11-24T23:02:13.050Z,47.22
2022-11-24T23:04:39.510Z,47.24
2022-11-24T23:07:05.949Z,47.36
2022-11-24T23:09:32.837Z,47.23
2022-11-24T23:11:59.302Z,47.15
2022-11-24T23:14:26.696Z,47.36
2022-11-24T23:16:53.930Z,47.28
2022-11-24T23:19:20.442Z,47.24
2022-11-24T23:21:46.950Z,47.21
2022-11-24T23:24:13.576Z,47.33
2022-11-24T23:26:41.213Z,47.47
2022-11-24T23:29:08.341Z,47.27
2022-11-24T23:31:35.520Z,47.31
2022-11-24T23:34:03.929Z,47.34
2022-11-24T23:36:31.174Z,47.38
2022-11-24T23:39:02.866Z,47.33
2022-11-24T23:41:30.102Z,47.46
2022-11-24T23:43:56.591Z,47.38
2022-11-24T23:46:24.417Z,47.41
2022-11-24T23:48:52.935Z,47.28
2022-11-24T23:51:22.865Z,47.37
2022-11-24T23:53:50.525Z,47.39
2022-11-24T23:56:20.166Z,47.56
2022-11-24T23:58:46.965Z,47.43
